sensor_id;sensor_type;location;lat;lon;timestamp;noise_LAeq;noise_LA_min;noise_LA_max;noise_LA01;noise_LA95
66455;Laerm;57651;51.438;5.982;2022-07-22T00:00:01;34.95;31.15;37.47;;
66455;Laerm;57651;51.438;5.982;2022-07-22T00:00:13;34.63;31.02;37.83;;
66455;Laerm;57651;51.438;5.982;2022-07-22T00:00:24;32.40;30.55;33.85;;
66455;Laerm;57651;51.438;5.982;2022-07-22T00:00:34;33.85;31.50;37.71;;
66455;Laerm;57651;51.438;5.982;2022-07-22T00:00:45;38.79;33.50;45.09;;
66455;Laerm;57651;51.438;5.982;2022-07-22T00:00:55;46.35;41.48;52.10;;
66455;Laerm;57651;51.438;5.982;2022-07-22T00:01:05;51.69;48.77;54.85;;
66455;Laerm;57651;51.438;5.982;2022-07-22T00:01:16;55.54;46.76;64.63;;
66455;Laerm;57651;51.438;5.982;2022-07-22T00:01:26;62.81;53.34;71.90;;
66455;Laerm;57651;51.438;5.982;2022-07-22T00:01:37;62.05;50.17;71.30;;
66455;Laerm;57651;51.438;5.982;2022-07-22T00:01:48;50.47;39.47;57.78;;
66455;Laerm;57651;51.438;5.982;2022-07-22T00:01:58;40.65;36.38;46.13;;
66455;Laerm;57651;51.438;5.982;2022-07-22T00:02:09;37.86;32.40;45.42;;
66455;Laerm;57651;51.438;5.982;2022-07-22T00:02:20;32.13;29.34;34.27;;
66455;Laerm;57651;51.438;5.982;2022-07-22T00:02:30;30.37;28.92;33.31;;
66455;Laerm;57651;51.438;5.982;2022-07-22T00:02:41;30.44;29.03;32.02;;
66455;Laerm;57651;51.438;5.982;2022-07-22T00:02:51;30.20;28.27;31.40;;
66455;Laerm;57651;51.438;5.982;2022-07-22T00:03:02;30.09;28.69;31.30;;
66455;Laerm;57651;51.438;5.982;2022-07-22T00:03:12;30.06;28.73;31.19;;
66455;Laerm;57651;51.438;5.982;2022-07-22T00:03:23;30.22;28.99;36.04;;
66455;Laerm;57651;51.438;5.982;2022-07-22T00:03:36;29.90;28.34;31.68;;
66455;Laerm;57651;51.438;5.982;2022-07-22T00:03:47;29.97;28.28;37.22;;
66455;Laerm;57651;51.438;5.982;2022-07-22T00:03:57;29.91;28.82;31.35;;
66455;Laerm;57651;51.438;5.982;2022-07-22T00:04:08;30.29;28.48;37.34;;
66455;Laerm;57651;51.438;5.982;2022-07-22T00:04:18;30.16;28.77;32.60;;
66455;Laerm;57651;51.438;5.982;2022-07-22T00:04:29;30.26;29.10;31.71;;
66455;Laerm;57651;51.438;5.982;2022-07-22T00:04:39;30.22;28.97;31.42;;
66455;Laerm;57651;51.438;5.982;2022-07-22T00:04:50;30.22;29.09;34.55;;
66455;Laerm;57651;51.438;5.982;2022-07-22T00:05:00;30.29;28.91;32.33;;
66455;Laerm;57651;51.438;5.982;2022-07-22T00:05:11;30.42;29.00;35.73;;
66455;Laerm;57651;51.438;5.982;2022-07-22T00:05:21;30.54;29.08;36.83;;
66455;Laerm;57651;51.438;5.982;2022-07-22T00:05:32;30.32;28.93;32.18;;
66455;Laerm;57651;51.438;5.982;2022-07-22T00:05:42;30.33;29.10;32.27;;
66455;Laerm;57651;51.438;5.982;2022-07-22T00:05:53;30.36;28.72;31.69;;
66455;Laerm;57651;51.438;5.982;2022-07-22T00:06:03;30.58;29.08;32.93;;
66455;Laerm;57651;51.438;5.982;2022-07-22T00:06:14;30.47;29.18;32.20;;
66455;Laerm;57651;51.438;5.982;2022-07-22T00:06:24;30.49;28.77;32.12;;
66455;Laerm;57651;51.438;5.982;2022-07-22T00:06:34;30.57;28.96;33.06;;
66455;Laerm;57651;51.438;5.982;2022-07-22T00:06:45;30.77;29.26;32.73;;
66455;Laerm;57651;51.438;5.982;2022-07-22T00:06:55;30.96;29.62;32.69;;
66455;Laerm;57651;51.438;5.982;2022-07-22T00:07:06;30.70;29.40;36.92;;
66455;Laerm;57651;51.438;5.982;2022-07-22T00:07:16;30.43;29.16;31.53;;
66455;Laerm;57651;51.438;5.982;2022-07-22T00:07:27;30.52;29.37;32.80;;
66455;Laerm;57651;51.438;5.982;2022-07-22T00:07:38;30.80;29.30;33.66;;
66455;Laerm;57651;51.438;5.982;2022-07-22T00:07:48;31.07;29.40;32.53;;
66455;Laerm;57651;51.438;5.982;2022-07-22T00:07:59;30.63;29.26;31.98;;
66455;Laerm;57651;51.438;5.982;2022-07-22T00:08:10;30.52;29.25;31.68;;
66455;Laerm;57651;51.438;5.982;2022-07-22T00:08:20;30.41;29.13;32.14;;
66455;Laerm;57651;51.438;5.982;2022-07-22T00:08:31;30.34;28.72;37.75;;
66455;Laerm;57651;51.438;5.982;2022-07-22T00:08:41;30.16;28.88;31.35;;
66455;Laerm;57651;51.438;5.982;2022-07-22T00:08:52;30.32;28.95;37.90;;
66455;Laerm;57651;51.438;5.982;2022-07-22T00:09:03;30.43;29.12;32.15;;
66455;Laerm;57651;51.438;5.982;2022-07-22T00:09:14;30.38;29.16;32.16;;
66455;Laerm;57651;51.438;5.982;2022-07-22T00:09:24;30.81;29.32;38.26;;
66455;Laerm;57651;51.438;5.982;2022-07-22T00:09:35;30.87;29.04;32.23;;
66455;Laerm;57651;51.438;5.982;2022-07-22T00:09:45;30.95;29.27;35.55;;
66455;Laerm;57651;51.438;5.982;2022-07-22T00:09:56;30.84;29.56;38.39;;
66455;Laerm;57651;51.438;5.982;2022-07-22T00:10:06;30.72;29.69;33.04;;
66455;Laerm;57651;51.438;5.982;2022-07-22T00:10:17;31.44;29.35;34.26;;
66455;Laerm;57651;51.438;5.982;2022-07-22T00:10:28;35.94;30.89;41.21;;
66455;Laerm;57651;51.438;5.982;2022-07-22T00:10:38;38.93;32.12;43.67;;
66455;Laerm;57651;51.438;5.982;2022-07-22T00:10:48;32.74;30.22;34.88;;
66455;Laerm;57651;51.438;5.982;2022-07-22T00:10:59;31.35;29.85;33.41;;
66455;Laerm;57651;51.438;5.982;2022-07-22T00:11:09;31.68;30.09;33.49;;
66455;Laerm;57651;51.438;5.982;2022-07-22T00:11:23;31.02;29.39;32.38;;
66455;Laerm;57651;51.438;5.982;2022-07-22T00:11:34;30.94;29.37;33.60;;
66455;Laerm;57651;51.438;5.982;2022-07-22T00:11:45;30.90;29.70;32.34;;
66455;Laerm;57651;51.438;5.982;2022-07-22T00:11:55;31.25;29.49;34.83;;
66455;Laerm;57651;51.438;5.982;2022-07-22T00:12:06;30.82;29.01;32.65;;
66455;Laerm;57651;51.438;5.982;2022-07-22T00:12:17;30.76;29.48;37.98;;
66455;Laerm;57651;51.438;5.982;2022-07-22T00:12:27;30.60;28.96;32.02;;
66455;Laerm;57651;51.438;5.982;2022-07-22T00:12:38;30.76;29.26;32.97;;
66455;Laerm;57651;51.438;5.982;2022-07-22T00:12:49;30.60;29.35;32.87;;
66455;Laerm;57651;51.438;5.982;2022-07-22T00:12:59;30.39;29.11;32.08;;
66455;Laerm;57651;51.438;5.982;2022-07-22T00:13:10;30.41;29.10;31.98;;
66455;Laerm;57651;51.438;5.982;2022-07-22T00:13:23;30.81;29.01;34.91;;
66455;Laerm;57651;51.438;5.982;2022-07-22T00:13:34;30.58;29.21;34.44;;
66455;Laerm;57651;51.438;5.982;2022-07-22T00:13:44;30.61;29.39;32.16;;
66455;Laerm;57651;51.438;5.982;2022-07-22T00:13:56;30.75;29.18;33.55;;
66455;Laerm;57651;51.438;5.982;2022-07-22T00:14:06;30.75;29.26;37.80;;
66455;Laerm;57651;51.438;5.982;2022-07-22T00:14:17;30.57;29.01;31.63;;
66455;Laerm;57651;51.438;5.982;2022-07-22T00:14:27;30.70;28.78;34.32;;
66455;Laerm;57651;51.438;5.982;2022-07-22T00:14:38;30.84;29.36;34.53;;
66455;Laerm;57651;51.438;5.982;2022-07-22T00:14:48;30.95;29.70;34.85;;
66455;Laerm;57651;51.438;5.982;2022-07-22T00:14:59;31.10;29.89;33.03;;
66455;Laerm;57651;51.438;5.982;2022-07-22T00:15:10;31.43;29.95;34.77;;
66455;Laerm;57651;51.438;5.982;2022-07-22T00:15:20;31.67;29.55;33.25;;
66455;Laerm;57651;51.438;5.982;2022-07-22T00:15:34;32.53;30.06;35.73;;
66455;Laerm;57651;51.438;5.982;2022-07-22T00:15:44;31.59;29.12;34.23;;
66455;Laerm;57651;51.438;5.982;2022-07-22T00:15:55;31.22;29.61;38.11;;
66455;Laerm;57651;51.438;5.982;2022-07-22T00:16:06;31.31;29.69;33.10;;
66455;Laerm;57651;51.438;5.982;2022-07-22T00:16:16;31.25;29.62;34.03;;
66455;Laerm;57651;51.438;5.982;2022-07-22T00:16:27;33.02;29.60;35.81;;
66455;Laerm;57651;51.438;5.982;2022-07-22T00:16:38;31.57;29.63;34.86;;
66455;Laerm;57651;51.438;5.982;2022-07-22T00:16:48;31.39;29.71;34.43;;
66455;Laerm;57651;51.438;5.982;2022-07-22T00:16:59;31.23;29.94;33.47;;
66455;Laerm;57651;51.438;5.982;2022-07-22T00:17:12;31.10;29.62;34.93;;
66455;Laerm;57651;51.438;5.982;2022-07-22T00:17:22;32.37;30.11;34.73;;
66455;Laerm;57651;51.438;5.982;2022-07-22T00:17:33;38.31;32.98;45.17;;
66455;Laerm;57651;51.438;5.982;2022-07-22T00:17:43;37.64;30.28;46.30;;
66455;Laerm;57651;51.438;5.982;2022-07-22T00:17:54;36.93;31.23;42.49;;
66455;Laerm;57651;51.438;5.982;2022-07-22T00:18:07;36.80;33.68;41.41;;
66455;Laerm;57651;51.438;5.982;2022-07-22T00:18:17;36.54;31.31;42.68;;
66455;Laerm;57651;51.438;5.982;2022-07-22T00:18:28;32.56;30.05;35.67;;
66455;Laerm;57651;51.438;5.982;2022-07-22T00:18:39;35.66;30.19;41.75;;
66455;Laerm;57651;51.438;5.982;2022-07-22T00:18:50;33.86;29.91;39.93;;
66455;Laerm;57651;51.438;5.982;2022-07-22T00:19:00;32.79;30.29;36.98;;
66455;Laerm;57651;51.438;5.982;2022-07-22T00:19:11;33.44;30.40;40.27;;
66455;Laerm;57651;51.438;5.982;2022-07-22T00:19:21;36.33;30.78;47.86;;
66455;Laerm;57651;51.438;5.982;2022-07-22T00:19:34;36.91;33.55;40.86;;
66455;Laerm;57651;51.438;5.982;2022-07-22T00:19:45;32.60;29.77;35.64;;
66455;Laerm;57651;51.438;5.982;2022-07-22T00:19:55;36.58;30.61;43.70;;
66455;Laerm;57651;51.438;5.982;2022-07-22T00:20:06;36.03;32.62;41.80;;
66455;Laerm;57651;51.438;5.982;2022-07-22T00:20:17;32.05;30.40;35.97;;
66455;Laerm;57651;51.438;5.982;2022-07-22T00:20:29;31.79;29.64;35.22;;
66455;Laerm;57651;51.438;5.982;2022-07-22T00:20:40;31.06;29.76;34.63;;
66455;Laerm;57651;51.438;5.982;2022-07-22T00:20:50;31.17;29.72;32.50;;
66455;Laerm;57651;51.438;5.982;2022-07-22T00:21:01;31.62;29.43;36.27;;
66455;Laerm;57651;51.438;5.982;2022-07-22T00:21:14;31.63;29.93;38.35;;
66455;Laerm;57651;51.438;5.982;2022-07-22T00:21:25;31.37;29.72;33.93;;
66455;Laerm;57651;51.438;5.982;2022-07-22T00:21:35;32.03;29.97;35.79;;
66455;Laerm;57651;51.438;5.982;2022-07-22T00:21:46;31.03;29.18;33.27;;
66455;Laerm;57651;51.438;5.982;2022-07-22T00:21:56;31.04;29.67;32.37;;
66455;Laerm;57651;51.438;5.982;2022-07-22T00:22:07;31.06;29.53;33.53;;
66455;Laerm;57651;51.438;5.982;2022-07-22T00:22:17;30.88;29.56;35.59;;
66455;Laerm;57651;51.438;5.982;2022-07-22T00:22:28;30.86;29.29;32.65;;
66455;Laerm;57651;51.438;5.982;2022-07-22T00:22:41;30.88;29.20;33.65;;
66455;Laerm;57651;51.438;5.982;2022-07-22T00:22:52;30.72;29.52;32.38;;
66455;Laerm;57651;51.438;5.982;2022-07-22T00:23:03;31.18;29.54;39.21;;
66455;Laerm;57651;51.438;5.982;2022-07-22T00:23:13;31.26;29.88;33.81;;
66455;Laerm;57651;51.438;5.982;2022-07-22T00:23:24;31.22;29.23;32.92;;
66455;Laerm;57651;51.438;5.982;2022-07-22T00:23:34;30.81;29.16;32.10;;
66455;Laerm;57651;51.438;5.982;2022-07-22T00:23:45;30.90;29.29;32.53;;
66455;Laerm;57651;51.438;5.982;2022-07-22T00:23:55;30.82;29.58;32.43;;
66455;Laerm;57651;51.438;5.982;2022-07-22T00:24:06;30.76;29.10;32.23;;
66455;Laerm;57651;51.438;5.982;2022-07-22T00:24:17;30.69;29.49;32.08;;
66455;Laerm;57651;51.438;5.982;2022-07-22T00:24:27;31.26;29.78;33.26;;
66455;Laerm;57651;51.438;5.982;2022-07-22T00:24:38;32.16;30.45;35.53;;
66455;Laerm;57651;51.438;5.982;2022-07-22T00:24:48;31.41;29.81;38.58;;
66455;Laerm;57651;51.438;5.982;2022-07-22T00:24:59;31.17;29.94;32.99;;
66455;Laerm;57651;51.438;5.982;2022-07-22T00:25:10;30.85;29.31;32.41;;
66455;Laerm;57651;51.438;5.982;2022-07-22T00:25:21;30.75;29.47;33.41;;
66455;Laerm;57651;51.438;5.982;2022-07-22T00:25:31;30.79;29.25;32.39;;
66455;Laerm;57651;51.438;5.982;2022-07-22T00:25:42;31.48;30.03;33.54;;
66455;Laerm;57651;51.438;5.982;2022-07-22T00:25:53;31.53;29.65;33.70;;
66455;Laerm;57651;51.438;5.982;2022-07-22T00:26:04;31.23;29.69;33.16;;
66455;Laerm;57651;51.438;5.982;2022-07-22T00:26:14;31.83;29.51;34.11;;
66455;Laerm;57651;51.438;5.982;2022-07-22T00:26:25;32.81;30.61;34.90;;
66455;Laerm;57651;51.438;5.982;2022-07-22T00:26:35;32.89;30.49;40.05;;
66455;Laerm;57651;51.438;5.982;2022-07-22T00:26:46;35.73;32.14;41.03;;
66455;Laerm;57651;51.438;5.982;2022-07-22T00:26:56;35.01;31.34;42.94;;
66455;Laerm;57651;51.438;5.982;2022-07-22T00:27:07;34.96;30.93;43.74;;
66455;Laerm;57651;51.438;5.982;2022-07-22T00:27:18;32.04;30.23;33.97;;
66455;Laerm;57651;51.438;5.982;2022-07-22T00:27:28;31.89;30.15;33.49;;
66455;Laerm;57651;51.438;5.982;2022-07-22T00:27:39;31.51;29.55;33.87;;
66455;Laerm;57651;51.438;5.982;2022-07-22T00:27:49;32.21;29.88;35.17;;
66455;Laerm;57651;51.438;5.982;2022-07-22T00:28:00;31.48;29.67;34.96;;
66455;Laerm;57651;51.438;5.982;2022-07-22T00:28:11;31.41;29.79;34.06;;
66455;Laerm;57651;51.438;5.982;2022-07-22T00:28:21;31.35;29.54;36.55;;
66455;Laerm;57651;51.438;5.982;2022-07-22T00:28:32;32.45;29.81;36.50;;
66455;Laerm;57651;51.438;5.982;2022-07-22T00:28:42;31.62;29.55;34.92;;
66455;Laerm;57651;51.438;5.982;2022-07-22T00:28:53;31.25;29.52;34.19;;
66455;Laerm;57651;51.438;5.982;2022-07-22T00:29:04;31.51;29.51;34.12;;
66455;Laerm;57651;51.438;5.982;2022-07-22T00:29:14;31.20;29.57;32.74;;
66455;Laerm;57651;51.438;5.982;2022-07-22T00:29:25;33.28;29.54;51.87;;
66455;Laerm;57651;51.438;5.982;2022-07-22T00:29:35;30.38;29.26;32.52;;
66455;Laerm;57651;51.438;5.982;2022-07-22T00:29:46;30.79;29.16;34.75;;
66455;Laerm;57651;51.438;5.982;2022-07-22T00:29:56;30.76;29.16;36.63;;
66455;Laerm;57651;51.438;5.982;2022-07-22T00:30:07;30.87;29.39;36.79;;
66455;Laerm;57651;51.438;5.982;2022-07-22T00:30:17;31.10;29.71;38.34;;
66455;Laerm;57651;51.438;5.982;2022-07-22T00:30:28;30.89;29.48;33.15;;
66455;Laerm;57651;51.438;5.982;2022-07-22T00:30:39;30.76;29.20;33.27;;
66455;Laerm;57651;51.438;5.982;2022-07-22T00:30:49;31.08;29.53;32.79;;
66455;Laerm;57651;51.438;5.982;2022-07-22T00:31:00;31.15;29.21;32.65;;
66455;Laerm;57651;51.438;5.982;2022-07-22T00:31:10;31.53;29.43;33.34;;
66455;Laerm;57651;51.438;5.982;2022-07-22T00:31:21;31.05;29.65;33.60;;
66455;Laerm;57651;51.438;5.982;2022-07-22T00:31:32;31.08;29.67;32.99;;
66455;Laerm;57651;51.438;5.982;2022-07-22T00:31:43;31.15;29.44;32.90;;
66455;Laerm;57651;51.438;5.982;2022-07-22T00:31:53;32.21;30.54;34.80;;
66455;Laerm;57651;51.438;5.982;2022-07-22T00:32:04;32.17;30.24;38.74;;
66455;Laerm;57651;51.438;5.982;2022-07-22T00:32:14;31.35;29.76;33.85;;
66455;Laerm;57651;51.438;5.982;2022-07-22T00:32:25;31.66;29.25;46.72;;
66455;Laerm;57651;51.438;5.982;2022-07-22T00:32:36;31.36;29.54;35.66;;
66455;Laerm;57651;51.438;5.982;2022-07-22T00:32:46;32.58;29.86;35.04;;
66455;Laerm;57651;51.438;5.982;2022-07-22T00:32:57;32.01;30.19;34.27;;
66455;Laerm;57651;51.438;5.982;2022-07-22T00:33:07;31.64;29.89;33.99;;
66455;Laerm;57651;51.438;5.982;2022-07-22T00:33:18;31.15;29.83;32.87;;
66455;Laerm;57651;51.438;5.982;2022-07-22T00:33:31;31.98;30.12;35.00;;
66455;Laerm;57651;51.438;5.982;2022-07-22T00:33:42;31.86;29.54;35.42;;
66455;Laerm;57651;51.438;5.982;2022-07-22T00:33:52;33.07;30.07;37.49;;
66455;Laerm;57651;51.438;5.982;2022-07-22T00:34:05;32.73;29.86;37.52;;
66455;Laerm;57651;51.438;5.982;2022-07-22T00:34:16;32.93;30.46;37.76;;
66455;Laerm;57651;51.438;5.982;2022-07-22T00:34:26;36.72;30.46;42.94;;
66455;Laerm;57651;51.438;5.982;2022-07-22T00:34:37;32.76;29.52;36.91;;
66455;Laerm;57651;51.438;5.982;2022-07-22T00:34:47;31.49;29.18;34.44;;
66455;Laerm;57651;51.438;5.982;2022-07-22T00:34:58;30.56;29.12;32.22;;
66455;Laerm;57651;51.438;5.982;2022-07-22T00:35:08;30.67;29.33;32.27;;
66455;Laerm;57651;51.438;5.982;2022-07-22T00:35:19;31.02;29.68;33.49;;
66455;Laerm;57651;51.438;5.982;2022-07-22T00:35:29;31.13;29.56;33.52;;
66455;Laerm;57651;51.438;5.982;2022-07-22T00:35:39;30.95;29.47;38.26;;
66455;Laerm;57651;51.438;5.982;2022-07-22T00:35:50;31.31;29.54;33.56;;
66455;Laerm;57651;51.438;5.982;2022-07-22T00:36:00;31.48;29.95;35.78;;
66455;Laerm;57651;51.438;5.982;2022-07-22T00:36:11;31.23;29.53;35.61;;
66455;Laerm;57651;51.438;5.982;2022-07-22T00:36:21;31.35;29.56;33.48;;
66455;Laerm;57651;51.438;5.982;2022-07-22T00:36:32;32.18;30.45;33.78;;
66455;Laerm;57651;51.438;5.982;2022-07-22T00:36:42;31.85;30.28;33.64;;
66455;Laerm;57651;51.438;5.982;2022-07-22T00:36:53;31.51;29.93;43.36;;
66455;Laerm;57651;51.438;5.982;2022-07-22T00:37:04;31.31;29.56;32.87;;
66455;Laerm;57651;51.438;5.982;2022-07-22T00:37:15;30.92;29.51;35.40;;
66455;Laerm;57651;51.438;5.982;2022-07-22T00:37:25;30.73;29.25;32.15;;
66455;Laerm;57651;51.438;5.982;2022-07-22T00:37:36;30.96;29.35;37.71;;
66455;Laerm;57651;51.438;5.982;2022-07-22T00:37:46;30.87;29.23;32.69;;
66455;Laerm;57651;51.438;5.982;2022-07-22T00:37:56;31.70;29.54;34.08;;
66455;Laerm;57651;51.438;5.982;2022-07-22T00:38:07;31.81;30.19;33.66;;
66455;Laerm;57651;51.438;5.982;2022-07-22T00:38:18;31.55;29.67;42.30;;
66455;Laerm;57651;51.438;5.982;2022-07-22T00:38:29;30.90;29.75;32.38;;
66455;Laerm;57651;51.438;5.982;2022-07-22T00:38:39;31.44;29.51;40.53;;
66455;Laerm;57651;51.438;5.982;2022-07-22T00:38:50;30.79;29.18;33.72;;
66455;Laerm;57651;51.438;5.982;2022-07-22T00:39:00;30.75;29.37;33.81;;
66455;Laerm;57651;51.438;5.982;2022-07-22T00:39:11;30.72;29.01;33.64;;
66455;Laerm;57651;51.438;5.982;2022-07-22T00:39:21;30.95;29.36;40.02;;
66455;Laerm;57651;51.438;5.982;2022-07-22T00:39:33;30.72;29.27;32.76;;
66455;Laerm;57651;51.438;5.982;2022-07-22T00:39:43;30.66;29.23;33.18;;
66455;Laerm;57651;51.438;5.982;2022-07-22T00:39:54;30.79;29.39;32.23;;
66455;Laerm;57651;51.438;5.982;2022-07-22T00:40:04;33.70;30.10;41.01;;
66455;Laerm;57651;51.438;5.982;2022-07-22T00:40:15;38.68;32.17;44.36;;
66455;Laerm;57651;51.438;5.982;2022-07-22T00:40:26;44.70;38.88;51.52;;
66455;Laerm;57651;51.438;5.982;2022-07-22T00:40:36;52.07;44.60;57.66;;
66455;Laerm;57651;51.438;5.982;2022-07-22T00:40:47;60.38;52.62;67.35;;
66455;Laerm;57651;51.438;5.982;2022-07-22T00:41:00;56.22;47.32;64.94;;
66455;Laerm;57651;51.438;5.982;2022-07-22T00:41:11;48.71;39.33;59.42;;
66455;Laerm;57651;51.438;5.982;2022-07-22T00:41:24;43.01;36.91;47.04;;
66455;Laerm;57651;51.438;5.982;2022-07-22T00:41:35;38.35;32.23;48.00;;
66455;Laerm;57651;51.438;5.982;2022-07-22T00:41:45;35.25;30.21;42.20;;
66455;Laerm;57651;51.438;5.982;2022-07-22T00:41:56;33.71;31.03;38.31;;
66455;Laerm;57651;51.438;5.982;2022-07-22T00:42:07;31.87;30.03;33.49;;
66455;Laerm;57651;51.438;5.982;2022-07-22T00:42:17;31.46;29.95;33.68;;
66455;Laerm;57651;51.438;5.982;2022-07-22T00:42:28;30.90;29.55;32.52;;
66455;Laerm;57651;51.438;5.982;2022-07-22T00:42:38;30.83;29.55;32.23;;
66455;Laerm;57651;51.438;5.982;2022-07-22T00:42:49;30.93;29.21;32.61;;
66455;Laerm;57651;51.438;5.982;2022-07-22T00:43:00;30.85;29.43;36.86;;
66455;Laerm;57651;51.438;5.982;2022-07-22T00:43:11;30.79;29.00;32.50;;
66455;Laerm;57651;51.438;5.982;2022-07-22T00:43:21;30.81;29.19;31.97;;
66455;Laerm;57651;51.438;5.982;2022-07-22T00:44:05;33.12;29.13;49.19;;
66455;Laerm;57651;51.438;5.982;2022-07-22T00:44:16;31.21;29.32;41.01;;
66455;Laerm;57651;51.438;5.982;2022-07-22T00:44:27;30.72;29.27;33.19;;
66455;Laerm;57651;51.438;5.982;2022-07-22T00:44:37;30.75;28.98;32.73;;
66455;Laerm;57651;51.438;5.982;2022-07-22T00:44:48;30.86;29.37;38.73;;
66455;Laerm;57651;51.438;5.982;2022-07-22T00:44:58;30.65;29.27;35.26;;
66455;Laerm;57651;51.438;5.982;2022-07-22T00:45:09;30.78;29.02;32.27;;
66455;Laerm;57651;51.438;5.982;2022-07-22T00:45:19;31.90;29.70;35.36;;
66455;Laerm;57651;51.438;5.982;2022-07-22T00:45:30;31.12;29.74;32.46;;
66455;Laerm;57651;51.438;5.982;2022-07-22T00:45:40;30.77;29.48;32.94;;
66455;Laerm;57651;51.438;5.982;2022-07-22T00:45:51;30.94;29.20;32.43;;
66455;Laerm;57651;51.438;5.982;2022-07-22T00:46:01;31.72;29.71;34.53;;
66455;Laerm;57651;51.438;5.982;2022-07-22T00:46:12;31.23;29.96;32.82;;
66455;Laerm;57651;51.438;5.982;2022-07-22T00:46:25;30.85;29.40;32.25;;
66455;Laerm;57651;51.438;5.982;2022-07-22T00:46:36;30.82;29.43;36.42;;
66455;Laerm;57651;51.438;5.982;2022-07-22T00:46:47;31.15;29.45;36.08;;
66455;Laerm;57651;51.438;5.982;2022-07-22T00:46:59;32.00;29.84;36.39;;
66455;Laerm;57651;51.438;5.982;2022-07-22T00:47:10;31.32;29.51;34.55;;
66455;Laerm;57651;51.438;5.982;2022-07-22T00:47:21;30.84;29.48;32.36;;
66455;Laerm;57651;51.438;5.982;2022-07-22T00:47:31;31.11;29.71;36.15;;
66455;Laerm;57651;51.438;5.982;2022-07-22T00:47:42;31.42;29.96;32.66;;
66455;Laerm;57651;51.438;5.982;2022-07-22T00:48:02;31.89;30.05;34.20;;
66455;Laerm;57651;51.438;5.982;2022-07-22T00:48:13;33.85;30.69;38.32;;
66455;Laerm;57651;51.438;5.982;2022-07-22T00:48:23;31.71;30.44;33.46;;
66455;Laerm;57651;51.438;5.982;2022-07-22T00:48:34;31.15;29.94;36.77;;
66455;Laerm;57651;51.438;5.982;2022-07-22T00:48:44;31.16;29.67;32.99;;
66455;Laerm;57651;51.438;5.982;2022-07-22T00:48:57;31.43;29.68;33.51;;
66455;Laerm;57651;51.438;5.982;2022-07-22T00:49:08;31.65;30.08;35.16;;
66455;Laerm;57651;51.438;5.982;2022-07-22T00:49:18;31.63;29.85;36.25;;
66455;Laerm;57651;51.438;5.982;2022-07-22T00:49:29;30.80;29.54;33.36;;
66455;Laerm;57651;51.438;5.982;2022-07-22T00:49:39;30.88;29.24;36.95;;
66455;Laerm;57651;51.438;5.982;2022-07-22T00:49:50;30.57;29.02;35.17;;
66455;Laerm;57651;51.438;5.982;2022-07-22T00:50:00;30.20;29.04;31.52;;
66455;Laerm;57651;51.438;5.982;2022-07-22T00:50:11;30.19;28.84;32.17;;
66455;Laerm;57651;51.438;5.982;2022-07-22T00:50:22;30.23;28.39;37.43;;
66455;Laerm;57651;51.438;5.982;2022-07-22T00:50:34;30.27;28.75;33.32;;
66455;Laerm;57651;51.438;5.982;2022-07-22T00:50:45;30.44;28.94;33.10;;
66455;Laerm;57651;51.438;5.982;2022-07-22T00:50:56;30.52;29.23;32.01;;
66455;Laerm;57651;51.438;5.982;2022-07-22T00:51:06;30.52;29.14;34.20;;
66455;Laerm;57651;51.438;5.982;2022-07-22T00:51:17;30.76;29.13;38.61;;
66455;Laerm;57651;51.438;5.982;2022-07-22T00:51:28;30.93;29.43;32.54;;
66455;Laerm;57651;51.438;5.982;2022-07-22T00:51:40;30.56;29.03;33.47;;
66455;Laerm;57651;51.438;5.982;2022-07-22T00:51:53;30.40;29.19;34.09;;
66455;Laerm;57651;51.438;5.982;2022-07-22T00:52:04;30.49;29.10;34.00;;
66455;Laerm;57651;51.438;5.982;2022-07-22T00:52:15;30.85;29.35;37.64;;
66455;Laerm;57651;51.438;5.982;2022-07-22T00:52:26;30.91;28.96;35.41;;
66455;Laerm;57651;51.438;5.982;2022-07-22T00:52:36;31.35;29.72;36.26;;
66455;Laerm;57651;51.438;5.982;2022-07-22T00:52:48;30.89;29.25;37.34;;
66455;Laerm;57651;51.438;5.982;2022-07-22T00:52:58;30.49;29.03;33.78;;
66455;Laerm;57651;51.438;5.982;2022-07-22T00:53:09;30.60;29.13;36.24;;
66455;Laerm;57651;51.438;5.982;2022-07-22T00:53:19;31.59;29.37;37.20;;
66455;Laerm;57651;51.438;5.982;2022-07-22T00:53:30;38.93;33.07;44.49;;
66455;Laerm;57651;51.438;5.982;2022-07-22T00:53:40;36.00;29.96;43.43;;
66455;Laerm;57651;51.438;5.982;2022-07-22T00:53:51;38.42;30.59;47.85;;
66455;Laerm;57651;51.438;5.982;2022-07-22T00:54:02;41.23;32.27;49.02;;
66455;Laerm;57651;51.438;5.982;2022-07-22T00:54:13;32.51;29.55;35.63;;
66455;Laerm;57651;51.438;5.982;2022-07-22T00:54:24;31.07;29.54;34.94;;
66455;Laerm;57651;51.438;5.982;2022-07-22T00:54:36;31.17;29.53;35.38;;
66455;Laerm;57651;51.438;5.982;2022-07-22T00:54:47;31.76;30.34;34.12;;
66455;Laerm;57651;51.438;5.982;2022-07-22T00:54:58;31.09;29.21;34.81;;
66455;Laerm;57651;51.438;5.982;2022-07-22T00:55:09;30.85;29.45;36.03;;
66455;Laerm;57651;51.438;5.982;2022-07-22T00:55:19;30.67;29.24;32.30;;
66455;Laerm;57651;51.438;5.982;2022-07-22T00:55:30;30.65;29.25;32.26;;
66455;Laerm;57651;51.438;5.982;2022-07-22T00:55:42;30.56;29.05;36.13;;
66455;Laerm;57651;51.438;5.982;2022-07-22T00:55:53;30.64;28.99;36.70;;
66455;Laerm;57651;51.438;5.982;2022-07-22T00:56:04;30.20;29.00;31.35;;
66455;Laerm;57651;51.438;5.982;2022-07-22T00:56:15;37.79;29.14;49.60;;
66455;Laerm;57651;51.438;5.982;2022-07-22T00:56:26;30.21;29.19;31.48;;
66455;Laerm;57651;51.438;5.982;2022-07-22T00:56:37;30.30;29.02;31.57;;
66455;Laerm;57651;51.438;5.982;2022-07-22T00:56:48;30.35;28.82;31.63;;
66455;Laerm;57651;51.438;5.982;2022-07-22T00:56:58;30.47;29.09;31.54;;
66455;Laerm;57651;51.438;5.982;2022-07-22T00:57:09;30.60;29.20;32.40;;
66455;Laerm;57651;51.438;5.982;2022-07-22T00:57:20;30.36;29.06;32.05;;
66455;Laerm;57651;51.438;5.982;2022-07-22T00:57:30;30.32;28.89;32.22;;
66455;Laerm;57651;51.438;5.982;2022-07-22T00:57:41;30.53;29.04;33.33;;
66455;Laerm;57651;51.438;5.982;2022-07-22T00:57:52;30.66;29.09;36.14;;
66455;Laerm;57651;51.438;5.982;2022-07-22T00:58:02;30.42;28.57;31.75;;
66455;Laerm;57651;51.438;5.982;2022-07-22T00:58:13;30.38;29.16;31.78;;
66455;Laerm;57651;51.438;5.982;2022-07-22T00:58:24;30.58;28.91;33.82;;
66455;Laerm;57651;51.438;5.982;2022-07-22T00:58:34;30.81;28.75;32.26;;
66455;Laerm;57651;51.438;5.982;2022-07-22T00:58:45;30.99;29.02;32.41;;
66455;Laerm;57651;51.438;5.982;2022-07-22T00:58:58;31.47;29.85;32.85;;
66455;Laerm;57651;51.438;5.982;2022-07-22T00:59:10;30.96;29.42;32.42;;
66455;Laerm;57651;51.438;5.982;2022-07-22T00:59:20;31.91;29.42;44.66;;
66455;Laerm;57651;51.438;5.982;2022-07-22T00:59:31;30.70;29.26;34.54;;
66455;Laerm;57651;51.438;5.982;2022-07-22T00:59:42;30.60;29.39;37.38;;
66455;Laerm;57651;51.438;5.982;2022-07-22T00:59:53;31.75;29.36;42.59;;
66455;Laerm;57651;51.438;5.982;2022-07-22T01:00:05;30.65;29.37;32.32;;
66455;Laerm;57651;51.438;5.982;2022-07-22T01:00:17;30.63;29.39;32.97;;
66455;Laerm;57651;51.438;5.982;2022-07-22T01:00:28;30.59;29.36;34.74;;
66455;Laerm;57651;51.438;5.982;2022-07-22T01:00:38;30.90;29.44;37.39;;
66455;Laerm;57651;51.438;5.982;2022-07-22T01:00:49;35.52;29.26;54.04;;
66455;Laerm;57651;51.438;5.982;2022-07-22T01:00:59;30.74;28.96;34.07;;